sensor_id;sensor_type;location;lat;lon;timestamp;pressure;altitude;pressure_sealevel;temperature;humidity
85560;BME280;76003;49.038;16.594;2024-03-22T00:02:27;99881.50;;;9.94;71.40
85560;BME280;76003;49.038;16.594;2024-03-22T00:05:53;99884.50;;;10.03;71.29
85560;BME280;76003;49.038;16.594;2024-03-22T00:08:18;99810.72;;;9.63;70.80
85560;BME280;76003;49.038;16.594;2024-03-22T00:11:05;99876.66;;;10.11;70.66
85560;BME280;76003;49.038;16.594;2024-03-22T00:13:45;99896.34;;;10.28;70.64
85560;BME280;76003;49.038;16.594;2024-03-22T00:16:26;99903.47;;;10.34;70.34
85560;BME280;76003;49.038;16.594;2024-03-22T00:19:07;99902.09;;;10.37;70.08
85560;BME280;76003;49.038;16.594;2024-03-22T00:21:33;99898.81;;;10.35;70.10
85560;BME280;76003;49.038;16.594;2024-03-22T00:24:19;99903.47;;;10.34;70.10
85560;BME280;76003;49.038;16.594;2024-03-22T00:26:45;99895.56;;;10.38;69.79
85560;BME280;76003;49.038;16.594;2024-03-22T00:29:48;99867.91;;;10.09;70.59
85560;BME280;76003;49.038;16.594;2024-03-22T00:32:14;99859.41;;;10.01;70.84
85560;BME280;76003;49.038;16.594;2024-03-22T00:35:16;99909.72;;;10.35;70.38
85560;BME280;76003;49.038;16.594;2024-03-22T00:38:41;99895.00;;;10.36;70.12
85560;BME280;76003;49.038;16.594;2024-03-22T00:42:07;99896.66;;;10.42;70.25
85560;BME280;76003;49.038;16.594;2024-03-22T00:45:32;99889.56;;;10.46;69.78
85560;BME280;76003;49.038;16.594;2024-03-22T00:48:58;99896.94;;;10.45;69.99
85560;BME280;76003;49.038;16.594;2024-03-22T00:51:25;99897.75;;;10.41;69.81
85560;BME280;76003;49.038;16.594;2024-03-22T00:54:29;99890.66;;;10.40;70.14
85560;BME280;76003;49.038;16.594;2024-03-22T00:57:10;99895.03;;;10.41;69.47
85560;BME280;76003;49.038;16.594;2024-03-22T00:59:50;99897.47;;;10.47;70.10
85560;BME280;76003;49.038;16.594;2024-03-22T01:02:16;99898.31;;;10.53;69.39
85560;BME280;76003;49.038;16.594;2024-03-22T01:05:02;99904.03;;;10.56;69.60
85560;BME280;76003;49.038;16.594;2024-03-22T01:07:28;99870.72;;;10.44;69.56
85560;BME280;76003;49.038;16.594;2024-03-22T01:10:15;99898.88;;;10.60;69.20
85560;BME280;76003;49.038;16.594;2024-03-22T01:12:55;99902.13;;;10.62;69.58
85560;BME280;76003;49.038;16.594;2024-03-22T01:15:35;99907.34;;;10.63;69.60
85560;BME280;76003;49.038;16.594;2024-03-22T01:18:16;99879.47;;;10.46;69.65
85560;BME280;76003;49.038;16.594;2024-03-22T01:20:56;99908.69;;;10.61;70.25
85560;BME280;76003;49.038;16.594;2024-03-22T01:23:36;99906.81;;;10.61;69.64
85560;BME280;76003;49.038;16.594;2024-03-22T01:26:10;99888.19;;;10.48;69.69
85560;BME280;76003;49.038;16.594;2024-03-22T01:28:56;99903.50;;;10.59;69.89
85560;BME280;76003;49.038;16.594;2024-03-22T01:31:36;99909.25;;;10.58;70.66
85560;BME280;76003;49.038;16.594;2024-03-22T01:34:16;99906.25;;;10.59;70.27
85560;BME280;76003;49.038;16.594;2024-03-22T01:36:57;99897.50;;;10.57;70.05
85560;BME280;76003;49.038;16.594;2024-03-22T01:39:24;99891.78;;;10.59;70.35
85560;BME280;76003;49.038;16.594;2024-03-22T01:42:10;99889.59;;;10.61;70.58
85560;BME280;76003;49.038;16.594;2024-03-22T01:44:36;99885.75;;;10.62;70.46
85560;BME280;76003;49.038;16.594;2024-03-22T01:47:22;99889.84;;;10.64;70.71
85560;BME280;76003;49.038;16.594;2024-03-22T01:50:03;99839.31;;;10.42;70.49
85560;BME280;76003;49.038;16.594;2024-03-22T01:52:44;99890.69;;;10.75;70.02
85560;BME280;76003;49.038;16.594;2024-03-22T01:55:25;99873.75;;;10.68;70.28
85560;BME280;76003;49.038;16.594;2024-03-22T01:58:06;99889.59;;;10.76;71.10
85560;BME280;76003;49.038;16.594;2024-03-22T02:00:49;99876.75;;;10.71;71.16
85560;BME280;76003;49.038;16.594;2024-03-22T02:03:15;99894.78;;;10.82;71.43
85560;BME280;76003;49.038;16.594;2024-03-22T02:06:01;99896.16;;;10.85;70.75
85560;BME280;76003;49.038;16.594;2024-03-22T02:08:42;99854.06;;;10.56;71.65
85560;BME280;76003;49.038;16.594;2024-03-22T02:11:26;99896.69;;;10.77;71.77
85560;BME280;76003;49.038;16.594;2024-03-22T02:14:07;99897.78;;;10.81;71.81
85560;BME280;76003;49.038;16.594;2024-03-22T02:16:47;99880.31;;;10.72;71.88
85560;BME280;76003;49.038;16.594;2024-03-22T02:19:17;99888.78;;;10.80;72.33
85560;BME280;76003;49.038;16.594;2024-03-22T02:22:04;99883.31;;;10.80;72.30
85560;BME280;76003;49.038;16.594;2024-03-22T02:24:29;99859.25;;;10.67;71.78
85560;BME280;76003;49.038;16.594;2024-03-22T02:27:16;99881.69;;;10.84;71.46
85560;BME280;76003;49.038;16.594;2024-03-22T02:29:56;99878.66;;;10.86;71.89
85560;BME280;76003;49.038;16.594;2024-03-22T02:32:36;99868.56;;;10.76;71.34
85560;BME280;76003;49.038;16.594;2024-03-22T02:35:05;99878.41;;;10.82;72.08
85560;BME280;76003;49.038;16.594;2024-03-22T02:37:55;99822.94;;;10.62;71.99
85560;BME280;76003;49.038;16.594;2024-03-22T02:40:38;99828.41;;;10.67;72.22
85560;BME280;76003;49.038;16.594;2024-03-22T02:43:19;99878.41;;;10.92;70.67
85560;BME280;76003;49.038;16.594;2024-03-22T02:46:01;99863.38;;;10.75;71.36
85560;BME280;76003;49.038;16.594;2024-03-22T02:48:41;99889.31;;;10.82;71.71
85560;BME280;76003;49.038;16.594;2024-03-22T02:51:21;99902.44;;;10.85;72.22
85560;BME280;76003;49.038;16.594;2024-03-22T02:54:02;99911.19;;;10.87;71.11
85560;BME280;76003;49.038;16.594;2024-03-22T02:56:42;99911.19;;;10.82;72.30
85560;BME280;76003;49.038;16.594;2024-03-22T02:59:10;99918.03;;;10.80;72.69
85560;BME280;76003;49.038;16.594;2024-03-22T03:01:56;99900.50;;;10.61;72.88
85560;BME280;76003;49.038;16.594;2024-03-22T03:04:22;99920.19;;;10.73;72.79
85560;BME280;76003;49.038;16.594;2024-03-22T03:07:08;99915.00;;;10.71;72.61
85560;BME280;76003;49.038;16.594;2024-03-22T03:09:34;99910.06;;;10.63;72.97
85560;BME280;76003;49.038;16.594;2024-03-22T03:12:21;99892.31;;;10.56;72.67
85560;BME280;76003;49.038;16.594;2024-03-22T03:15:02;99896.97;;;10.65;72.34
85560;BME280;76003;49.038;16.594;2024-03-22T03:17:43;99904.34;;;10.60;72.58
85560;BME280;76003;49.038;16.594;2024-03-22T03:20:25;99900.22;;;10.52;72.15
85560;BME280;76003;49.038;16.594;2024-03-22T03:23:06;99869.31;;;10.27;72.51
85560;BME280;76003;49.038;16.594;2024-03-22T03:25:46;99903.22;;;10.41;74.09
85560;BME280;76003;49.038;16.594;2024-03-22T03:28:27;99901.84;;;10.33;73.99
85560;BME280;76003;49.038;16.594;2024-03-22T03:31:08;99897.16;;;10.24;73.73
85560;BME280;76003;49.038;16.594;2024-03-22T03:33:48;99899.31;;;10.12;74.41
85560;BME280;76003;49.038;16.594;2024-03-22T03:36:14;99859.34;;;9.81;74.74
85560;BME280;76003;49.038;16.594;2024-03-22T03:39:00;99890.75;;;9.93;75.21
85560;BME280;76003;49.038;16.594;2024-03-22T03:41:26;99876.25;;;9.83;75.03
85560;BME280;76003;49.038;16.594;2024-03-22T03:44:12;99864.47;;;9.67;75.75
85560;BME280;76003;49.038;16.594;2024-03-22T03:46:38;99880.25;;;9.65;76.14
85560;BME280;76003;49.038;16.594;2024-03-22T03:49:24;99891.66;;;9.57;76.16
85560;BME280;76003;49.038;16.594;2024-03-22T03:52:05;99883.13;;;9.44;76.29
85560;BME280;76003;49.038;16.594;2024-03-22T03:54:45;99885.78;;;9.29;77.04
85560;BME280;76003;49.038;16.594;2024-03-22T03:57:26;99872.53;;;9.06;77.37
85560;BME280;76003;49.038;16.594;2024-03-22T04:00:07;99887.25;;;9.05;77.41
85560;BME280;76003;49.038;16.594;2024-03-22T04:02:50;99869.66;;;8.85;77.58
85560;BME280;76003;49.038;16.594;2024-03-22T04:05:31;99875.69;;;8.88;77.50
85560;BME280;76003;49.038;16.594;2024-03-22T04:08:11;99874.00;;;8.81;77.76
85560;BME280;76003;49.038;16.594;2024-03-22T04:10:53;99876.44;;;8.78;78.58
85560;BME280;76003;49.038;16.594;2024-03-22T04:13:18;99857.72;;;8.55;78.22
85560;BME280;76003;49.038;16.594;2024-03-22T04:16:05;99873.78;;;8.56;79.22
85560;BME280;76003;49.038;16.594;2024-03-22T04:18:45;99851.72;;;8.26;79.12
85560;BME280;76003;49.038;16.594;2024-03-22T04:21:20;99883.09;;;8.34;79.26
85560;BME280;76003;49.038;16.594;2024-03-22T04:24:06;99887.88;;;8.22;79.57
85560;BME280;76003;49.038;16.594;2024-03-22T04:26:32;99881.44;;;8.11;80.19
85560;BME280;76003;49.038;16.594;2024-03-22T04:29:18;99890.41;;;8.07;80.08
85560;BME280;76003;49.038;16.594;2024-03-22T04:31:59;99878.38;;;8.03;80.80
85560;BME280;76003;49.038;16.594;2024-03-22T04:34:42;99882.09;;;7.97;80.35
85560;BME280;76003;49.038;16.594;2024-03-22T04:37:23;99885.03;;;7.90;80.75
85560;BME280;76003;49.038;16.594;2024-03-22T04:40:05;99885.53;;;7.87;81.22
85560;BME280;76003;49.038;16.594;2024-03-22T04:42:45;99879.00;;;7.88;81.24
85560;BME280;76003;49.038;16.594;2024-03-22T04:45:26;99885.53;;;7.87;81.76
85560;BME280;76003;49.038;16.594;2024-03-22T04:48:04;99889.53;;;7.80;81.39
85560;BME280;76003;49.038;16.594;2024-03-22T04:50:52;99870.59;;;7.68;81.90
85560;BME280;76003;49.038;16.594;2024-03-22T04:53:33;99901.22;;;7.80;81.99
85560;BME280;76003;49.038;16.594;2024-03-22T04:56:02;99895.22;;;7.78;80.78
85560;BME280;76003;49.038;16.594;2024-03-22T04:58:49;99905.06;;;7.84;82.23
85560;BME280;76003;49.038;16.594;2024-03-22T05:01:14;99896.75;;;7.91;81.77
85560;BME280;76003;49.038;16.594;2024-03-22T05:04:01;99897.28;;;7.93;81.53
85560;BME280;76003;49.038;16.594;2024-03-22T05:06:41;99874.66;;;7.87;80.59
85560;BME280;76003;49.038;16.594;2024-03-22T05:09:22;99881.31;;;7.96;81.29
85560;BME280;76003;49.038;16.594;2024-03-22T05:12:03;99886.84;;;8.06;80.52
85560;BME280;76003;49.038;16.594;2024-03-22T05:14:44;99865.75;;;7.92;80.07
85560;BME280;76003;49.038;16.594;2024-03-22T05:17:25;99883.66;;;8.14;80.74
85560;BME280;76003;49.038;16.594;2024-03-22T05:20:06;99890.59;;;8.22;80.65
85560;BME280;76003;49.038;16.594;2024-03-22T05:22:47;99850.47;;;8.12;79.96
85560;BME280;76003;49.038;16.594;2024-03-22T05:25:33;99871.63;;;8.32;80.17
85560;BME280;76003;49.038;16.594;2024-03-22T05:28:14;99878.06;;;8.47;79.53
85560;BME280;76003;49.038;16.594;2024-03-22T05:30:47;99880.56;;;8.54;79.50
85560;BME280;76003;49.038;16.594;2024-03-22T05:33:33;99882.81;;;8.62;79.65
85560;BME280;76003;49.038;16.594;2024-03-22T05:35:59;99876.88;;;8.65;78.74
85560;BME280;76003;49.038;16.594;2024-03-22T05:38:46;99875.56;;;8.72;78.29
85560;BME280;76003;49.038;16.594;2024-03-22T05:41:26;99883.28;;;8.85;78.05
85560;BME280;76003;49.038;16.594;2024-03-22T05:44:07;99877.09;;;8.95;77.96
85560;BME280;76003;49.038;16.594;2024-03-22T05:46:47;99874.19;;;9.07;77.49
85560;BME280;76003;49.038;16.594;2024-03-22T05:49:27;99877.56;;;9.19;76.60
85560;BME280;76003;49.038;16.594;2024-03-22T05:52:08;99860.09;;;9.20;76.35
85560;BME280;76003;49.038;16.594;2024-03-22T05:54:48;99892.44;;;9.48;76.39
85560;BME280;76003;49.038;16.594;2024-03-22T05:57:29;99879.09;;;9.10;76.53
85560;BME280;76003;49.038;16.594;2024-03-22T05:59:55;99884.34;;;9.16;77.42
85560;BME280;76003;49.038;16.594;2024-03-22T06:02:42;99875.44;;;9.31;77.21
85560;BME280;76003;49.038;16.594;2024-03-22T06:05:23;99886.97;;;9.48;76.88
85560;BME280;76003;49.038;16.594;2024-03-22T06:07:49;99841.66;;;9.37;76.31
85560;BME280;76003;49.038;16.594;2024-03-22T06:10:35;99866.94;;;9.69;76.35
85560;BME280;76003;49.038;16.594;2024-03-22T06:13:01;99871.31;;;9.80;75.98
85560;BME280;76003;49.038;16.594;2024-03-22T06:15:50;99863.44;;;9.93;75.81
85560;BME280;76003;49.038;16.594;2024-03-22T06:18:31;99871.72;;;10.08;74.79
85560;BME280;76003;49.038;16.594;2024-03-22T06:21:11;99876.44;;;10.28;74.14
85560;BME280;76003;49.038;16.594;2024-03-22T06:23:54;99859.00;;;10.59;72.84
85560;BME280;76003;49.038;16.594;2024-03-22T06:26:20;99864.72;;;10.67;72.80
85560;BME280;76003;49.038;16.594;2024-03-22T06:30:02;99868.84;;;10.95;70.94
85560;BME280;76003;49.038;16.594;2024-03-22T06:33:28;99827.28;;;10.98;69.95
85560;BME280;76003;49.038;16.594;2024-03-22T06:36:53;99858.69;;;11.20;69.85
85560;BME280;76003;49.038;16.594;2024-03-22T06:40:19;99867.41;;;11.37;69.34
85560;BME280;76003;49.038;16.594;2024-03-22T06:42:45;99868.25;;;11.33;69.07
85560;BME280;76003;49.038;16.594;2024-03-22T06:45:32;99866.03;;;11.35;69.64
85560;BME280;76003;49.038;16.594;2024-03-22T06:47:58;99836.56;;;11.12;69.48
85560;BME280;76003;49.038;16.594;2024-03-22T06:50:44;99863.31;;;11.30;69.79
85560;BME280;76003;49.038;16.594;2024-03-22T06:53:11;99798.06;;;10.88;70.48
85560;BME280;76003;49.038;16.594;2024-03-22T06:55:57;99867.16;;;11.34;69.96
85560;BME280;76003;49.038;16.594;2024-03-22T06:58:23;99866.84;;;11.30;70.09
85560;BME280;76003;49.038;16.594;2024-03-22T07:00:49;99866.03;;;11.40;70.29
85560;BME280;76003;49.038;16.594;2024-03-22T07:03:30;99869.00;;;11.53;69.51
85560;BME280;76003;49.038;16.594;2024-03-22T07:06:11;99842.47;;;11.54;68.86
85560;BME280;76003;49.038;16.594;2024-03-22T07:08:51;99823.88;;;11.51;69.26
85560;BME280;76003;49.038;16.594;2024-03-22T07:11:32;99870.75;;;12.03;68.11
85560;BME280;76003;49.038;16.594;2024-03-22T07:14:13;99884.28;;;12.33;67.13
85560;BME280;76003;49.038;16.594;2024-03-22T07:16:54;99876.19;;;12.56;66.29
85560;BME280;76003;49.038;16.594;2024-03-22T07:19:20;99878.34;;;12.59;65.39
85560;BME280;76003;49.038;16.594;2024-03-22T07:22:07;99871.00;;;12.55;64.87
85560;BME280;76003;49.038;16.594;2024-03-22T07:24:33;99854.41;;;12.75;64.09
85560;BME280;76003;49.038;16.594;2024-03-22T07:27:19;99848.25;;;12.88;63.86
85560;BME280;76003;49.038;16.594;2024-03-22T07:29:45;99875.50;;;13.13;63.47
85560;BME280;76003;49.038;16.594;2024-03-22T07:32:31;99865.72;;;13.31;62.85
85560;BME280;76003;49.038;16.594;2024-03-22T07:35:12;99864.16;;;13.48;62.01
85560;BME280;76003;49.038;16.594;2024-03-22T07:37:53;99837.72;;;13.57;60.43
85560;BME280;76003;49.038;16.594;2024-03-22T07:40:33;99872.69;;;13.94;59.43
85560;BME280;76003;49.038;16.594;2024-03-22T07:43:13;99870.13;;;14.21;58.69
85560;BME280;76003;49.038;16.594;2024-03-22T07:45:56;99869.88;;;14.41;58.24
85560;BME280;76003;49.038;16.594;2024-03-22T07:48:37;99851.72;;;14.21;58.43
85560;BME280;76003;49.038;16.594;2024-03-22T07:51:17;99840.25;;;14.38;57.52
85560;BME280;76003;49.038;16.594;2024-03-22T07:53:58;99850.41;;;14.37;57.11
85560;BME280;76003;49.038;16.594;2024-03-22T07:56:39;99860.00;;;14.58;56.44
85560;BME280;76003;49.038;16.594;2024-03-22T07:59:05;99854.72;;;14.62;56.37
85560;BME280;76003;49.038;16.594;2024-03-22T08:01:52;99844.25;;;14.96;55.48
85560;BME280;76003;49.038;16.594;2024-03-22T08:04:32;99845.19;;;15.50;53.68
85560;BME280;76003;49.038;16.594;2024-03-22T08:06:58;99850.13;;;15.80;52.17
85560;BME280;76003;49.038;16.594;2024-03-22T08:09:45;99847.16;;;15.63;52.74
85560;BME280;76003;49.038;16.594;2024-03-22T08:12:11;99827.38;;;15.75;51.76
85560;BME280;76003;49.038;16.594;2024-03-22T08:14:58;99847.84;;;15.82;52.11
85560;BME280;76003;49.038;16.594;2024-03-22T08:17:38;99858.00;;;16.49;50.11
85560;BME280;76003;49.038;16.594;2024-03-22T08:20:19;99816.88;;;17.06;48.50
85560;BME280;76003;49.038;16.594;2024-03-22T08:23:00;99836.13;;;18.53;45.08
85560;BME280;76003;49.038;16.594;2024-03-22T08:25:41;99834.56;;;19.87;42.08
85560;BME280;76003;49.038;16.594;2024-03-22T08:28:23;99825.94;;;21.00;38.48
85560;BME280;76003;49.038;16.594;2024-03-22T08:31:04;99817.53;;;20.46;39.86
85560;BME280;76003;49.038;16.594;2024-03-22T08:33:45;99826.84;;;22.05;36.41
85560;BME280;76003;49.038;16.594;2024-03-22T08:36:11;99826.66;;;22.89;34.93
85560;BME280;76003;49.038;16.594;2024-03-22T08:38:57;99820.34;;;21.89;36.11
85560;BME280;76003;49.038;16.594;2024-03-22T08:41:38;99814.09;;;22.04;35.79
85560;BME280;76003;49.038;16.594;2024-03-22T08:44:18;99806.53;;;23.66;32.16
85560;BME280;76003;49.038;16.594;2024-03-22T08:46:59;99824.13;;;24.67;30.66
85560;BME280;76003;49.038;16.594;2024-03-22T08:49:24;99792.97;;;25.03;29.71
85560;BME280;76003;49.038;16.594;2024-03-22T08:52:11;99827.97;;;24.43;29.98
85560;BME280;76003;49.038;16.594;2024-03-22T08:54:37;99825.97;;;24.24;30.07
85560;BME280;76003;49.038;16.594;2024-03-22T08:57:23;99815.34;;;24.14;30.17
85560;BME280;76003;49.038;16.594;2024-03-22T09:00:04;99803.50;;;24.36;29.65
85560;BME280;76003;49.038;16.594;2024-03-22T09:02:48;99814.50;;;23.21;31.58
85560;BME280;76003;49.038;16.594;2024-03-22T09:05:29;99791.47;;;23.86;30.53
85560;BME280;76003;49.038;16.594;2024-03-22T09:08:09;99808.50;;;23.96;30.47
85560;BME280;76003;49.038;16.594;2024-03-22T09:10:50;99797.56;;;24.22;29.68
85560;BME280;76003;49.038;16.594;2024-03-22T09:13:16;99785.75;;;24.29;29.22
85560;BME280;76003;49.038;16.594;2024-03-22T09:16:02;99790.66;;;24.16;29.14
85560;BME280;76003;49.038;16.594;2024-03-22T09:18:43;99793.91;;;25.29;28.02
85560;BME280;76003;49.038;16.594;2024-03-22T09:21:24;99801.94;;;24.93;28.80
85560;BME280;76003;49.038;16.594;2024-03-22T09:24:05;99798.03;;;25.58;27.43
85560;BME280;76003;49.038;16.594;2024-03-22T09:26:46;99767.00;;;26.44;25.67
85560;BME280;76003;49.038;16.594;2024-03-22T09:29:26;99802.00;;;27.16;24.53
85560;BME280;76003;49.038;16.594;2024-03-22T09:31:53;99755.47;;;26.49;25.16
85560;BME280;76003;49.038;16.594;2024-03-22T09:34:39;99785.50;;;27.48;24.76
85560;BME280;76003;49.038;16.594;2024-03-22T09:37:08;99783.28;;;26.35;25.40
85560;BME280;76003;49.038;16.594;2024-03-22T09:39:54;99792.78;;;27.19;24.57
85560;BME280;76003;49.038;16.594;2024-03-22T09:42:38;99790.09;;;28.10;23.71
85560;BME280;76003;49.038;16.594;2024-03-22T09:45:21;99788.84;;;27.20;24.24
85560;BME280;76003;49.038;16.594;2024-03-22T09:47:58;99796.84;;;28.56;23.48
85560;BME280;76003;49.038;16.594;2024-03-22T09:50:46;99788.94;;;28.18;23.29
85560;BME280;76003;49.038;16.594;2024-03-22T09:53:19;99785.75;;;26.66;25.90
85560;BME280;76003;49.038;16.594;2024-03-22T09:56:00;99786.38;;;26.56;25.20
85560;BME280;76003;49.038;16.594;2024-03-22T09:58:27;99771.50;;;26.52;25.18
85560;BME280;76003;49.038;16.594;2024-03-22T10:00:52;99756.84;;;26.33;24.95
85560;BME280;76003;49.038;16.594;2024-03-22T10:03:19;99782.91;;;25.85;26.18
85560;BME280;76003;49.038;16.594;2024-03-22T10:05:46;99758.94;;;25.87;26.05
85560;BME280;76003;49.038;16.594;2024-03-22T10:08:13;99781.88;;;24.33;27.79
85560;BME280;76003;49.038;16.594;2024-03-22T10:11:16;99746.75;;;24.90;25.98
85560;BME280;76003;49.038;16.594;2024-03-22T10:13:42;99774.94;;;25.64;25.79
85560;BME280;76003;49.038;16.594;2024-03-22T10:16:45;99746.63;;;25.24;25.29
85560;BME280;76003;49.038;16.594;2024-03-22T10:19:10;99773.66;;;25.17;25.50
85560;BME280;76003;49.038;16.594;2024-03-22T10:22:03;99730.28;;;24.46;26.03
85560;BME280;76003;49.038;16.594;2024-03-22T10:24:30;99763.31;;;24.79;25.31
85560;BME280;76003;49.038;16.594;2024-03-22T10:27:16;99727.63;;;25.33;25.60
85560;BME280;76003;49.038;16.594;2024-03-22T10:29:44;99756.00;;;25.13;25.62
85560;BME280;76003;49.038;16.594;2024-03-22T10:32:48;99756.47;;;24.58;26.38
85560;BME280;76003;49.038;16.594;2024-03-22T10:35:29;99741.41;;;24.81;26.17
85560;BME280;76003;49.038;16.594;2024-03-22T10:38:12;99744.41;;;25.33;25.80
85560;BME280;76003;49.038;16.594;2024-03-22T10:40:54;99738.25;;;24.10;27.05
85560;BME280;76003;49.038;16.594;2024-03-22T10:43:20;99744.75;;;24.33;26.88
85560;BME280;76003;49.038;16.594;2024-03-22T10:46:29;99697.78;;;24.19;25.77
85560;BME280;76003;49.038;16.594;2024-03-22T10:48:59;99740.47;;;23.39;27.62
85560;BME280;76003;49.038;16.594;2024-03-22T10:52:03;99738.06;;;24.95;25.86
85560;BME280;76003;49.038;16.594;2024-03-22T10:55:32;99720.94;;;24.39;26.88
85560;BME280;76003;49.038;16.594;2024-03-22T10:59:03;99712.53;;;23.85;27.75
85560;BME280;76003;49.038;16.594;2024-03-22T11:01:31;99701.97;;;23.44;28.17
85560;BME280;76003;49.038;16.594;2024-03-22T11:04:22;99702.94;;;22.62;29.32
85560;BME280;76003;49.038;16.594;2024-03-22T11:06:51;99702.38;;;22.29;28.77
85560;BME280;76003;49.038;16.594;2024-03-22T11:09:56;99620.66;;;21.82;28.82
85560;BME280;76003;49.038;16.594;2024-03-22T11:13:23;99687.69;;;23.80;26.24
85560;BME280;76003;49.038;16.594;2024-03-22T11:16:48;99681.38;;;23.49;26.37
85560;BME280;76003;49.038;16.594;2024-03-22T11:19:14;99676.19;;;22.73;27.70
85560;BME280;76003;49.038;16.594;2024-03-22T11:22:17;99669.94;;;23.07;26.71
85560;BME280;76003;49.038;16.594;2024-03-22T11:24:43;99669.50;;;23.36;26.75
85560;BME280;76003;49.038;16.594;2024-03-22T11:27:47;99669.69;;;23.78;25.79
85560;BME280;76003;49.038;16.594;2024-03-22T11:31:12;99662.16;;;23.63;26.04
85560;BME280;76003;49.038;16.594;2024-03-22T11:34:41;99654.94;;;23.27;26.28
85560;BME280;76003;49.038;16.594;2024-03-22T11:38:06;99630.91;;;22.76;27.08
85560;BME280;76003;49.038;16.594;2024-03-22T11:41:32;99643.91;;;22.29;27.73
85560;BME280;76003;49.038;16.594;2024-03-22T11:43:59;99654.97;;;22.53;27.43
85560;BME280;76003;49.038;16.594;2024-03-22T11:46:46;99645.28;;;22.63;27.00
85560;BME280;76003;49.038;16.594;2024-03-22T11:49:13;99643.00;;;22.25;27.44
85560;BME280;76003;49.038;16.594;2024-03-22T11:52:17;99636.56;;;21.58;28.37
85560;BME280;76003;49.038;16.594;2024-03-22T11:54:50;99608.13;;;21.88;27.69
85560;BME280;76003;49.038;16.594;2024-03-22T11:57:38;99624.00;;;21.76;27.46
85560;BME280;76003;49.038;16.594;2024-03-22T12:00:05;99613.88;;;21.95;27.46
85560;BME280;76003;49.038;16.594;2024-03-22T12:02:38;99610.38;;;21.59;28.34
85560;BME280;76003;49.038;16.594;2024-03-22T12:05:04;99615.97;;;21.98;27.82
85560;BME280;76003;49.038;16.594;2024-03-22T12:07:31;99583.34;;;21.83;28.58
85560;BME280;76003;49.038;16.594;2024-03-22T12:11:16;99603.75;;;21.75;27.31
85560;BME280;76003;49.038;16.594;2024-03-22T12:14:42;99574.50;;;20.81;26.66
85560;BME280;76003;49.038;16.594;2024-03-22T12:18:07;99591.09;;;20.33;27.85
85560;BME280;76003;49.038;16.594;2024-03-22T12:20:38;99555.97;;;20.49;27.35
85560;BME280;76003;49.038;16.594;2024-03-22T12:23:25;99582.50;;;21.07;25.92
85560;BME280;76003;49.038;16.594;2024-03-22T12:26:06;99578.13;;;21.06;25.96
85560;BME280;76003;49.038;16.594;2024-03-22T12:28:57;99571.00;;;20.48;25.80
85560;BME280;76003;49.038;16.594;2024-03-22T12:31:23;99557.25;;;20.64;24.67
85560;BME280;76003;49.038;16.594;2024-03-22T12:34:10;99567.91;;;20.74;24.19
85560;BME280;76003;49.038;16.594;2024-03-22T12:36:36;99529.50;;;20.76;24.44
85560;BME280;76003;49.038;16.594;2024-03-22T12:39:40;99555.91;;;20.94;24.72
85560;BME280;76003;49.038;16.594;2024-03-22T12:42:20;99560.09;;;21.00;24.79
85560;BME280;76003;49.038;16.594;2024-03-22T12:46:03;99553.09;;;21.30;24.47
85560;BME280;76003;49.038;16.594;2024-03-22T12:49:29;99503.69;;;20.88;24.71
85560;BME280;76003;49.038;16.594;2024-03-22T12:52:59;99542.22;;;20.89;24.82
85560;BME280;76003;49.038;16.594;2024-03-22T12:55:26;99537.50;;;21.02;25.18
85560;BME280;76003;49.038;16.594;2024-03-22T12:58:14;99526.03;;;21.03;25.90
85560;BME280;76003;49.038;16.594;2024-03-22T13:00:57;99503.25;;;21.10;26.01
85560;BME280;76003;49.038;16.594;2024-03-22T13:03:39;99532.50;;;21.19;25.57
85560;BME280;76003;49.038;16.594;2024-03-22T13:06:13;99488.41;;;20.69;25.78
85560;BME280;76003;49.038;16.594;2024-03-22T13:09:00;99516.31;;;21.09;25.78
85560;BME280;76003;49.038;16.594;2024-03-22T13:11:27;99520.69;;;21.10;25.86
85560;BME280;76003;49.038;16.594;2024-03-22T13:14:14;99511.91;;;21.20;26.02
85560;BME280;76003;49.038;16.594;2024-03-22T13:16:41;99496.22;;;21.28;25.48
85560;BME280;76003;49.038;16.594;2024-03-22T13:19:21;99496.88;;;20.97;26.14
85560;BME280;76003;49.038;16.594;2024-03-22T13:22:03;99493.50;;;21.04;25.98
85560;BME280;76003;49.038;16.594;2024-03-22T13:24:48;99493.28;;;20.97;27.55
85560;BME280;76003;49.038;16.594;2024-03-22T13:27:17;99487.63;;;20.81;27.44
85560;BME280;76003;49.038;16.594;2024-03-22T13:31:03;99488.03;;;21.31;26.75
85560;BME280;76003;49.038;16.594;2024-03-22T13:33:29;99458.59;;;20.54;27.72
85560;BME280;76003;49.038;16.594;2024-03-22T13:36:38;99472.66;;;20.85;27.46
85560;BME280;76003;49.038;16.594;2024-03-22T13:39:07;99465.06;;;20.34;28.79
85560;BME280;76003;49.038;16.594;2024-03-22T13:41:57;99473.41;;;20.58;28.06
85560;BME280;76003;49.038;16.594;2024-03-22T13:44:24;99466.06;;;20.06;28.67
85560;BME280;76003;49.038;16.594;2024-03-22T13:47:16;99468.88;;;20.30;29.01
85560;BME280;76003;49.038;16.594;2024-03-22T13:49:44;99459.97;;;20.12;29.08
85560;BME280;76003;49.038;16.594;2024-03-22T13:52:48;99417.59;;;19.91;29.38
85560;BME280;76003;49.038;16.594;2024-03-22T13:56:17;99437.78;;;19.80;30.06
85560;BME280;76003;49.038;16.594;2024-03-22T13:59:42;99434.22;;;19.91;29.66
85560;BME280;76003;49.038;16.594;2024-03-22T14:02:09;99431.81;;;19.90;30.25
85560;BME280;76003;49.038;16.594;2024-03-22T14:05:51;99395.72;;;19.78;30.66
85560;BME280;76003;49.038;16.594;2024-03-22T14:09:20;99415.19;;;19.90;30.08
85560;BME280;76003;49.038;16.594;2024-03-22T14:12:46;99409.03;;;19.72;30.78
85560;BME280;76003;49.038;16.594;2024-03-22T14:15:13;99403.94;;;19.74;30.99
85560;BME280;76003;49.038;16.594;2024-03-22T14:17:59;99402.81;;;19.22;31.43
85560;BME280;76003;49.038;16.594;2024-03-22T14:20:28;99388.41;;;18.55;33.44